Fresno, California
Current Conditions -  °F | °C
As of 5:53 AM on Monday 24 Nov 2014 (Local Time) from KFAT Reporting Station
Haze Haze  
Wind Chill: 45°   Ceiling: 3700
Heat Index: 45°   Visibility: 5mi
Dew Point: 44°   Wind: 3mph
Humidity: 97%   Direction: 320°NW
Pressure: 30.34"   Gusts: NA
Location:  36.74°N, 119.78°W
Report Text: KFAT 241353Z 32003KT 5SM BR OVC037 07/07 A3034 RMK AO2 SLP273 BINOVC VIS LWR N-NE T00720067
Loading
Personal Weather Stations






























Interactive Weather Map New forecast layout! Learn more

10-Day Weather Forecast

Advertisements
Track Severe Weather on mobile